sensor_id;sensor_type;location;lat;lon;timestamp;P1;durP1;ratioP1;P2;durP2;ratioP2
9080;SDS011;13509;50.760;6.080;2024-01-30T00:00:49;6.27;;;4.23;;
9080;SDS011;13509;50.760;6.080;2024-01-30T00:03:18;7.37;;;4.03;;
9080;SDS011;13509;50.760;6.080;2024-01-30T00:05:46;7.87;;;4.60;;
9080;SDS011;13509;50.760;6.080;2024-01-30T00:08:15;7.53;;;4.40;;
9080;SDS011;13509;50.760;6.080;2024-01-30T00:10:44;6.53;;;4.20;;
9080;SDS011;13509;50.760;6.080;2024-01-30T00:13:13;8.77;;;4.30;;
9080;SDS011;13509;50.760;6.080;2024-01-30T00:15:44;7.50;;;3.87;;
9080;SDS011;13509;50.760;6.080;2024-01-30T00:18:12;7.03;;;3.97;;
9080;SDS011;13509;50.760;6.080;2024-01-30T00:20:40;7.03;;;4.30;;
9080;SDS011;13509;50.760;6.080;2024-01-30T00:23:09;8.60;;;3.90;;
9080;SDS011;13509;50.760;6.080;2024-01-30T00:25:37;6.63;;;4.13;;
9080;SDS011;13509;50.760;6.080;2024-01-30T00:28:06;6.90;;;4.20;;
9080;SDS011;13509;50.760;6.080;2024-01-30T00:30:35;5.57;;;4.13;;
9080;SDS011;13509;50.760;6.080;2024-01-30T00:33:04;4.63;;;3.93;;
9080;SDS011;13509;50.760;6.080;2024-01-30T00:35:32;7.70;;;4.03;;
9080;SDS011;13509;50.760;6.080;2024-01-30T00:38:01;8.60;;;3.97;;
9080;SDS011;13509;50.760;6.080;2024-01-30T00:40:29;7.00;;;4.00;;
9080;SDS011;13509;50.760;6.080;2024-01-30T00:42:57;5.33;;;3.77;;
9080;SDS011;13509;50.760;6.080;2024-01-30T00:45:26;5.60;;;4.00;;
9080;SDS011;13509;50.760;6.080;2024-01-30T00:47:55;5.90;;;3.67;;
9080;SDS011;13509;50.760;6.080;2024-01-30T00:50:24;6.20;;;4.40;;
9080;SDS011;13509;50.760;6.080;2024-01-30T00:52:52;8.67;;;4.20;;
9080;SDS011;13509;50.760;6.080;2024-01-30T00:55:20;8.07;;;4.47;;
9080;SDS011;13509;50.760;6.080;2024-01-30T00:57:49;7.37;;;3.77;;
9080;SDS011;13509;50.760;6.080;2024-01-30T01:00:17;5.00;;;3.60;;
9080;SDS011;13509;50.760;6.080;2024-01-30T01:02:47;7.97;;;3.80;;
9080;SDS011;13509;50.760;6.080;2024-01-30T01:05:16;4.90;;;3.60;;
9080;SDS011;13509;50.760;6.080;2024-01-30T01:07:44;9.40;;;4.00;;
9080;SDS011;13509;50.760;6.080;2024-01-30T01:10:14;5.60;;;3.50;;
9080;SDS011;13509;50.760;6.080;2024-01-30T01:12:43;6.10;;;3.67;;
9080;SDS011;13509;50.760;6.080;2024-01-30T01:15:12;6.83;;;5.27;;
9080;SDS011;13509;50.760;6.080;2024-01-30T01:17:40;6.77;;;4.07;;
9080;SDS011;13509;50.760;6.080;2024-01-30T01:20:08;4.70;;;4.00;;
9080;SDS011;13509;50.760;6.080;2024-01-30T01:22:39;4.87;;;3.80;;
9080;SDS011;13509;50.760;6.080;2024-01-30T01:25:08;9.10;;;4.37;;
9080;SDS011;13509;50.760;6.080;2024-01-30T01:27:36;5.53;;;4.13;;
9080;SDS011;13509;50.760;6.080;2024-01-30T01:30:08;9.63;;;3.97;;
9080;SDS011;13509;50.760;6.080;2024-01-30T01:32:37;6.37;;;4.33;;
9080;SDS011;13509;50.760;6.080;2024-01-30T01:35:11;6.43;;;4.07;;
9080;SDS011;13509;50.760;6.080;2024-01-30T01:37:41;5.73;;;3.90;;
9080;SDS011;13509;50.760;6.080;2024-01-30T01:40:09;6.20;;;4.10;;
9080;SDS011;13509;50.760;6.080;2024-01-30T01:42:38;9.13;;;4.50;;
9080;SDS011;13509;50.760;6.080;2024-01-30T01:45:06;6.47;;;4.60;;
9080;SDS011;13509;50.760;6.080;2024-01-30T01:47:35;9.70;;;4.03;;
9080;SDS011;13509;50.760;6.080;2024-01-30T01:50:03;8.77;;;4.10;;
9080;SDS011;13509;50.760;6.080;2024-01-30T01:52:32;7.50;;;4.37;;
9080;SDS011;13509;50.760;6.080;2024-01-30T01:55:02;8.33;;;4.00;;
9080;SDS011;13509;50.760;6.080;2024-01-30T01:57:31;5.77;;;3.93;;
9080;SDS011;13509;50.760;6.080;2024-01-30T01:59:59;5.17;;;3.63;;
9080;SDS011;13509;50.760;6.080;2024-01-30T02:02:28;5.57;;;3.60;;
9080;SDS011;13509;50.760;6.080;2024-01-30T02:07:48;8.97;;;3.80;;
9080;SDS011;13509;50.760;6.080;2024-01-30T02:10:18;7.33;;;3.97;;
9080;SDS011;13509;50.760;6.080;2024-01-30T02:12:46;6.73;;;3.80;;
9080;SDS011;13509;50.760;6.080;2024-01-30T02:15:14;6.10;;;4.00;;
9080;SDS011;13509;50.760;6.080;2024-01-30T02:17:43;6.70;;;4.03;;
9080;SDS011;13509;50.760;6.080;2024-01-30T02:20:11;7.53;;;3.90;;
9080;SDS011;13509;50.760;6.080;2024-01-30T02:22:41;5.23;;;3.47;;
9080;SDS011;13509;50.760;6.080;2024-01-30T02:25:10;6.27;;;3.70;;
9080;SDS011;13509;50.760;6.080;2024-01-30T02:27:39;6.47;;;3.70;;
9080;SDS011;13509;50.760;6.080;2024-01-30T02:30:08;4.33;;;3.53;;
9080;SDS011;13509;50.760;6.080;2024-01-30T02:32:36;4.10;;;3.37;;
9080;SDS011;13509;50.760;6.080;2024-01-30T02:35:04;4.17;;;3.33;;
9080;SDS011;13509;50.760;6.080;2024-01-30T02:37:33;4.83;;;3.63;;
9080;SDS011;13509;50.760;6.080;2024-01-30T02:40:03;4.77;;;3.10;;
9080;SDS011;13509;50.760;6.080;2024-01-30T02:42:31;4.63;;;3.10;;
9080;SDS011;13509;50.760;6.080;2024-01-30T02:44:59;5.40;;;3.27;;
9080;SDS011;13509;50.760;6.080;2024-01-30T02:47:28;4.63;;;3.40;;
9080;SDS011;13509;50.760;6.080;2024-01-30T02:49:56;4.97;;;3.57;;
9080;SDS011;13509;50.760;6.080;2024-01-30T02:52:25;7.60;;;4.20;;
9080;SDS011;13509;50.760;6.080;2024-01-30T02:54:53;6.13;;;3.30;;
9080;SDS011;13509;50.760;6.080;2024-01-30T02:57:23;4.53;;;3.53;;
9080;SDS011;13509;50.760;6.080;2024-01-30T02:59:51;4.57;;;3.07;;
9080;SDS011;13509;50.760;6.080;2024-01-30T03:02:20;4.77;;;3.30;;
9080;SDS011;13509;50.760;6.080;2024-01-30T03:04:48;3.60;;;3.30;;
9080;SDS011;13509;50.760;6.080;2024-01-30T03:07:17;6.77;;;3.40;;
9080;SDS011;13509;50.760;6.080;2024-01-30T03:09:45;4.87;;;3.40;;
9080;SDS011;13509;50.760;6.080;2024-01-30T03:12:14;4.33;;;3.60;;
9080;SDS011;13509;50.760;6.080;2024-01-30T03:14:44;4.30;;;3.47;;
9080;SDS011;13509;50.760;6.080;2024-01-30T03:17:12;4.13;;;3.47;;
9080;SDS011;13509;50.760;6.080;2024-01-30T03:19:40;6.60;;;3.43;;
9080;SDS011;13509;50.760;6.080;2024-01-30T03:22:09;4.83;;;3.60;;
9080;SDS011;13509;50.760;6.080;2024-01-30T03:24:38;5.13;;;3.90;;
9080;SDS011;13509;50.760;6.080;2024-01-30T03:27:06;6.30;;;4.07;;
9080;SDS011;13509;50.760;6.080;2024-01-30T03:29:34;4.60;;;3.40;;
9080;SDS011;13509;50.760;6.080;2024-01-30T03:32:04;5.27;;;3.80;;
9080;SDS011;13509;50.760;6.080;2024-01-30T03:34:33;5.47;;;3.93;;
9080;SDS011;13509;50.760;6.080;2024-01-30T03:37:01;6.93;;;3.70;;
9080;SDS011;13509;50.760;6.080;2024-01-30T03:39:30;7.07;;;3.50;;
9080;SDS011;13509;50.760;6.080;2024-01-30T03:41:58;5.43;;;3.77;;
9080;SDS011;13509;50.760;6.080;2024-01-30T03:44:26;7.43;;;3.80;;
9080;SDS011;13509;50.760;6.080;2024-01-30T03:46:55;7.30;;;4.17;;
9080;SDS011;13509;50.760;6.080;2024-01-30T03:49:24;6.33;;;4.00;;
9080;SDS011;13509;50.760;6.080;2024-01-30T03:51:53;8.43;;;3.93;;
9080;SDS011;13509;50.760;6.080;2024-01-30T03:54:21;8.30;;;4.10;;
9080;SDS011;13509;50.760;6.080;2024-01-30T03:56:50;5.20;;;3.33;;
9080;SDS011;13509;50.760;6.080;2024-01-30T03:59:18;6.00;;;4.30;;
9080;SDS011;13509;50.760;6.080;2024-01-30T04:01:50;5.93;;;3.40;;
9080;SDS011;13509;50.760;6.080;2024-01-30T04:04:19;6.23;;;4.10;;
9080;SDS011;13509;50.760;6.080;2024-01-30T04:06:49;5.23;;;3.53;;
9080;SDS011;13509;50.760;6.080;2024-01-30T04:09:17;4.40;;;4.00;;
9080;SDS011;13509;50.760;6.080;2024-01-30T04:11:45;6.13;;;4.50;;
9080;SDS011;13509;50.760;6.080;2024-01-30T04:14:15;7.53;;;4.03;;
9080;SDS011;13509;50.760;6.080;2024-01-30T04:16:43;7.73;;;4.50;;
9080;SDS011;13509;50.760;6.080;2024-01-30T04:19:12;5.73;;;3.73;;
9080;SDS011;13509;50.760;6.080;2024-01-30T04:21:41;5.83;;;3.97;;
9080;SDS011;13509;50.760;6.080;2024-01-30T04:24:10;8.90;;;3.93;;
9080;SDS011;13509;50.760;6.080;2024-01-30T04:26:39;5.20;;;3.63;;
9080;SDS011;13509;50.760;6.080;2024-01-30T04:29:10;6.77;;;3.83;;
9080;SDS011;13509;50.760;6.080;2024-01-30T04:31:39;9.90;;;4.17;;
9080;SDS011;13509;50.760;6.080;2024-01-30T04:34:07;6.00;;;3.53;;
9080;SDS011;13509;50.760;6.080;2024-01-30T04:36:36;9.07;;;4.17;;
9080;SDS011;13509;50.760;6.080;2024-01-30T04:39:04;5.20;;;3.73;;
9080;SDS011;13509;50.760;6.080;2024-01-30T04:41:33;5.67;;;3.80;;
9080;SDS011;13509;50.760;6.080;2024-01-30T04:44:02;5.30;;;3.90;;
9080;SDS011;13509;50.760;6.080;2024-01-30T04:46:30;4.30;;;3.47;;
9080;SDS011;13509;50.760;6.080;2024-01-30T04:49:00;6.77;;;3.37;;
9080;SDS011;13509;50.760;6.080;2024-01-30T04:51:29;7.10;;;3.40;;
9080;SDS011;13509;50.760;6.080;2024-01-30T04:53:58;5.97;;;3.77;;
9080;SDS011;13509;50.760;6.080;2024-01-30T04:56:26;5.87;;;3.67;;
9080;SDS011;13509;50.760;6.080;2024-01-30T04:58:56;4.30;;;3.37;;
9080;SDS011;13509;50.760;6.080;2024-01-30T05:01:24;8.47;;;3.77;;
9080;SDS011;13509;50.760;6.080;2024-01-30T05:03:52;4.73;;;3.30;;
9080;SDS011;13509;50.760;6.080;2024-01-30T05:06:24;6.70;;;3.97;;
9080;SDS011;13509;50.760;6.080;2024-01-30T05:08:53;4.97;;;3.43;;
9080;SDS011;13509;50.760;6.080;2024-01-30T05:11:21;5.30;;;3.40;;
9080;SDS011;13509;50.760;6.080;2024-01-30T05:13:49;6.37;;;3.57;;
9080;SDS011;13509;50.760;6.080;2024-01-30T05:16:19;6.10;;;3.90;;
9080;SDS011;13509;50.760;6.080;2024-01-30T05:18:47;6.80;;;3.90;;
9080;SDS011;13509;50.760;6.080;2024-01-30T05:21:16;5.47;;;3.93;;
9080;SDS011;13509;50.760;6.080;2024-01-30T05:23:45;6.00;;;3.80;;
9080;SDS011;13509;50.760;6.080;2024-01-30T05:26:13;5.37;;;3.80;;
9080;SDS011;13509;50.760;6.080;2024-01-30T05:28:42;6.30;;;3.70;;
9080;SDS011;13509;50.760;6.080;2024-01-30T05:31:11;5.40;;;4.30;;
9080;SDS011;13509;50.760;6.080;2024-01-30T05:33:41;5.87;;;3.77;;
9080;SDS011;13509;50.760;6.080;2024-01-30T05:36:11;4.63;;;3.43;;
9080;SDS011;13509;50.760;6.080;2024-01-30T05:38:39;5.07;;;3.30;;
9080;SDS011;13509;50.760;6.080;2024-01-30T05:41:08;6.40;;;3.57;;
9080;SDS011;13509;50.760;6.080;2024-01-30T05:43:36;5.63;;;4.00;;
9080;SDS011;13509;50.760;6.080;2024-01-30T05:46:06;6.10;;;4.00;;
9080;SDS011;13509;50.760;6.080;2024-01-30T05:48:34;4.97;;;3.80;;
9080;SDS011;13509;50.760;6.080;2024-01-30T05:51:04;6.37;;;3.63;;
9080;SDS011;13509;50.760;6.080;2024-01-30T05:53:35;6.33;;;3.87;;
9080;SDS011;13509;50.760;6.080;2024-01-30T05:56:03;5.37;;;3.80;;
9080;SDS011;13509;50.760;6.080;2024-01-30T05:58:31;4.77;;;3.50;;
9080;SDS011;13509;50.760;6.080;2024-01-30T06:01:00;6.03;;;3.80;;
9080;SDS011;13509;50.760;6.080;2024-01-30T06:03:28;6.53;;;3.23;;
9080;SDS011;13509;50.760;6.080;2024-01-30T06:05:57;5.93;;;3.70;;
9080;SDS011;13509;50.760;6.080;2024-01-30T06:08:26;5.93;;;3.90;;
9080;SDS011;13509;50.760;6.080;2024-01-30T06:10:55;5.90;;;3.63;;
9080;SDS011;13509;50.760;6.080;2024-01-30T06:13:23;5.70;;;3.70;;
9080;SDS011;13509;50.760;6.080;2024-01-30T06:15:51;6.37;;;3.83;;
9080;SDS011;13509;50.760;6.080;2024-01-30T06:18:20;5.13;;;4.07;;
9080;SDS011;13509;50.760;6.080;2024-01-30T06:20:48;8.50;;;3.77;;
9080;SDS011;13509;50.760;6.080;2024-01-30T06:23:17;6.57;;;4.23;;
9080;SDS011;13509;50.760;6.080;2024-01-30T06:25:46;7.03;;;4.50;;
9080;SDS011;13509;50.760;6.080;2024-01-30T06:28:15;5.43;;;3.77;;
9080;SDS011;13509;50.760;6.080;2024-01-30T06:30:43;8.37;;;4.17;;
9080;SDS011;13509;50.760;6.080;2024-01-30T06:33:12;7.50;;;3.90;;
9080;SDS011;13509;50.760;6.080;2024-01-30T06:35:40;7.43;;;3.93;;
9080;SDS011;13509;50.760;6.080;2024-01-30T06:38:10;6.50;;;4.37;;
9080;SDS011;13509;50.760;6.080;2024-01-30T06:40:39;6.27;;;3.67;;
9080;SDS011;13509;50.760;6.080;2024-01-30T06:43:09;7.27;;;4.27;;
9080;SDS011;13509;50.760;6.080;2024-01-30T06:45:37;6.70;;;3.73;;
9080;SDS011;13509;50.760;6.080;2024-01-30T06:48:07;7.73;;;4.03;;
9080;SDS011;13509;50.760;6.080;2024-01-30T06:50:35;5.80;;;3.97;;
9080;SDS011;13509;50.760;6.080;2024-01-30T06:53:04;7.20;;;3.90;;
9080;SDS011;13509;50.760;6.080;2024-01-30T06:55:32;7.67;;;4.20;;
9080;SDS011;13509;50.760;6.080;2024-01-30T06:58:00;6.20;;;4.17;;
9080;SDS011;13509;50.760;6.080;2024-01-30T07:00:30;7.50;;;4.00;;
9080;SDS011;13509;50.760;6.080;2024-01-30T07:02:59;6.23;;;4.13;;
9080;SDS011;13509;50.760;6.080;2024-01-30T07:05:27;6.13;;;3.80;;
9080;SDS011;13509;50.760;6.080;2024-01-30T07:07:55;7.47;;;3.70;;
9080;SDS011;13509;50.760;6.080;2024-01-30T07:10:24;7.00;;;4.00;;
9080;SDS011;13509;50.760;6.080;2024-01-30T07:12:53;6.83;;;4.17;;
9080;SDS011;13509;50.760;6.080;2024-01-30T07:15:21;5.77;;;3.97;;
9080;SDS011;13509;50.760;6.080;2024-01-30T07:17:51;6.87;;;3.87;;
9080;SDS011;13509;50.760;6.080;2024-01-30T07:20:19;7.43;;;3.90;;
9080;SDS011;13509;50.760;6.080;2024-01-30T07:22:48;8.53;;;4.37;;
9080;SDS011;13509;50.760;6.080;2024-01-30T07:25:15;8.50;;;4.57;;
9080;SDS011;13509;50.760;6.080;2024-01-30T07:27:44;7.43;;;4.67;;
9080;SDS011;13509;50.760;6.080;2024-01-30T07:30:12;6.53;;;3.93;;
9080;SDS011;13509;50.760;6.080;2024-01-30T07:32:41;6.07;;;4.00;;
9080;SDS011;13509;50.760;6.080;2024-01-30T07:35:11;7.97;;;4.70;;
9080;SDS011;13509;50.760;6.080;2024-01-30T07:37:40;5.83;;;4.23;;
9080;SDS011;13509;50.760;6.080;2024-01-30T07:40:08;5.97;;;4.37;;
9080;SDS011;13509;50.760;6.080;2024-01-30T07:42:37;8.07;;;4.33;;
9080;SDS011;13509;50.760;6.080;2024-01-30T07:45:06;7.10;;;3.90;;
9080;SDS011;13509;50.760;6.080;2024-01-30T07:47:34;8.30;;;5.03;;
9080;SDS011;13509;50.760;6.080;2024-01-30T07:50:03;8.47;;;4.20;;
9080;SDS011;13509;50.760;6.080;2024-01-30T07:52:33;6.67;;;4.60;;
9080;SDS011;13509;50.760;6.080;2024-01-30T07:55:01;6.97;;;4.43;;
9080;SDS011;13509;50.760;6.080;2024-01-30T07:57:30;6.47;;;3.90;;
9080;SDS011;13509;50.760;6.080;2024-01-30T07:59:58;6.53;;;3.97;;
9080;SDS011;13509;50.760;6.080;2024-01-30T08:02:27;7.13;;;4.00;;
9080;SDS011;13509;50.760;6.080;2024-01-30T08:04:55;6.07;;;4.23;;
9080;SDS011;13509;50.760;6.080;2024-01-30T08:07:24;8.60;;;4.60;;
9080;SDS011;13509;50.760;6.080;2024-01-30T08:09:53;8.07;;;5.00;;
9080;SDS011;13509;50.760;6.080;2024-01-30T08:12:22;6.27;;;4.43;;
9080;SDS011;13509;50.760;6.080;2024-01-30T08:14:50;8.13;;;5.10;;
9080;SDS011;13509;50.760;6.080;2024-01-30T08:17:18;10.00;;;5.47;;
9080;SDS011;13509;50.760;6.080;2024-01-30T08:19:47;11.80;;;5.33;;
9080;SDS011;13509;50.760;6.080;2024-01-30T08:22:15;8.33;;;4.47;;
9080;SDS011;13509;50.760;6.080;2024-01-30T08:24:44;9.57;;;5.13;;
9080;SDS011;13509;50.760;6.080;2024-01-30T08:27:13;8.77;;;5.20;;
9080;SDS011;13509;50.760;6.080;2024-01-30T08:29:42;7.93;;;5.07;;
9080;SDS011;13509;50.760;6.080;2024-01-30T08:32:10;10.83;;;5.13;;
9080;SDS011;13509;50.760;6.080;2024-01-30T08:34:38;8.80;;;5.37;;
9080;SDS011;13509;50.760;6.080;2024-01-30T08:37:07;8.00;;;4.90;;
9080;SDS011;13509;50.760;6.080;2024-01-30T08:39:35;9.27;;;5.73;;
9080;SDS011;13509;50.760;6.080;2024-01-30T08:42:04;6.30;;;4.80;;
9080;SDS011;13509;50.760;6.080;2024-01-30T08:44:35;10.33;;;5.70;;
9080;SDS011;13509;50.760;6.080;2024-01-30T08:47:04;9.80;;;5.77;;
9080;SDS011;13509;50.760;6.080;2024-01-30T08:49:33;8.53;;;5.20;;
9080;SDS011;13509;50.760;6.080;2024-01-30T08:52:01;10.13;;;5.60;;
9080;SDS011;13509;50.760;6.080;2024-01-30T08:54:30;6.90;;;5.10;;
9080;SDS011;13509;50.760;6.080;2024-01-30T08:57:00;8.00;;;5.23;;
9080;SDS011;13509;50.760;6.080;2024-01-30T08:59:28;7.40;;;5.23;;
9080;SDS011;13509;50.760;6.080;2024-01-30T09:01:58;7.13;;;5.07;;
9080;SDS011;13509;50.760;6.080;2024-01-30T09:04:37;10.67;;;4.73;;
9080;SDS011;13509;50.760;6.080;2024-01-30T09:07:06;8.47;;;5.00;;
9080;SDS011;13509;50.760;6.080;2024-01-30T09:09:37;7.87;;;5.03;;
9080;SDS011;13509;50.760;6.080;2024-01-30T09:12:07;8.07;;;5.07;;
9080;SDS011;13509;50.760;6.080;2024-01-30T09:14:36;9.83;;;4.60;;
9080;SDS011;13509;50.760;6.080;2024-01-30T09:17:05;8.80;;;4.83;;
9080;SDS011;13509;50.760;6.080;2024-01-30T09:19:34;9.90;;;4.43;;
9080;SDS011;13509;50.760;6.080;2024-01-30T09:22:03;9.80;;;4.93;;
9080;SDS011;13509;50.760;6.080;2024-01-30T09:24:31;7.53;;;4.40;;
9080;SDS011;13509;50.760;6.080;2024-01-30T09:26:59;8.57;;;4.70;;
9080;SDS011;13509;50.760;6.080;2024-01-30T09:29:28;10.07;;;4.40;;
9080;SDS011;13509;50.760;6.080;2024-01-30T09:31:56;8.40;;;4.50;;
9080;SDS011;13509;50.760;6.080;2024-01-30T09:34:26;7.90;;;4.43;;
9080;SDS011;13509;50.760;6.080;2024-01-30T09:36:55;7.10;;;4.67;;
9080;SDS011;13509;50.760;6.080;2024-01-30T09:39:23;7.07;;;4.60;;
9080;SDS011;13509;50.760;6.080;2024-01-30T09:41:59;10.60;;;4.60;;
9080;SDS011;13509;50.760;6.080;2024-01-30T09:44:29;10.67;;;5.17;;
9080;SDS011;13509;50.760;6.080;2024-01-30T09:46:57;7.87;;;4.47;;
9080;SDS011;13509;50.760;6.080;2024-01-30T09:49:31;8.30;;;4.77;;
9080;SDS011;13509;50.760;6.080;2024-01-30T09:52:00;8.57;;;4.30;;
9080;SDS011;13509;50.760;6.080;2024-01-30T09:54:29;7.90;;;4.00;;
9080;SDS011;13509;50.760;6.080;2024-01-30T09:57:02;7.03;;;4.07;;
9080;SDS011;13509;50.760;6.080;2024-01-30T09:59:31;10.17;;;4.33;;
9080;SDS011;13509;50.760;6.080;2024-01-30T10:02:00;10.60;;;4.47;;
9080;SDS011;13509;50.760;6.080;2024-01-30T10:04:32;10.73;;;5.00;;
9080;SDS011;13509;50.760;6.080;2024-01-30T10:07:01;9.63;;;5.10;;
9080;SDS011;13509;50.760;6.080;2024-01-30T10:09:31;10.80;;;5.13;;
9080;SDS011;13509;50.760;6.080;2024-01-30T10:12:01;8.20;;;4.60;;
9080;SDS011;13509;50.760;6.080;2024-01-30T10:14:30;11.17;;;5.10;;
9080;SDS011;13509;50.760;6.080;2024-01-30T10:17:00;12.10;;;5.00;;
9080;SDS011;13509;50.760;6.080;2024-01-30T10:19:38;8.17;;;5.10;;
9080;SDS011;13509;50.760;6.080;2024-01-30T10:22:07;10.57;;;5.30;;
9080;SDS011;13509;50.760;6.080;2024-01-30T10:24:36;9.87;;;4.80;;
9080;SDS011;13509;50.760;6.080;2024-01-30T10:27:05;9.30;;;5.37;;
9080;SDS011;13509;50.760;6.080;2024-01-30T10:29:34;9.07;;;4.63;;
9080;SDS011;13509;50.760;6.080;2024-01-30T10:32:02;8.23;;;5.00;;
9080;SDS011;13509;50.760;6.080;2024-01-30T10:34:31;9.40;;;4.60;;
9080;SDS011;13509;50.760;6.080;2024-01-30T10:37:04;8.73;;;4.17;;
9080;SDS011;13509;50.760;6.080;2024-01-30T10:39:39;11.50;;;5.20;;
9080;SDS011;13509;50.760;6.080;2024-01-30T10:42:10;8.93;;;4.80;;
9080;SDS011;13509;50.760;6.080;2024-01-30T10:44:46;9.53;;;4.33;;
9080;SDS011;13509;50.760;6.080;2024-01-30T10:47:17;9.63;;;4.47;;
9080;SDS011;13509;50.760;6.080;2024-01-30T10:49:46;9.47;;;4.57;;
9080;SDS011;13509;50.760;6.080;2024-01-30T10:52:17;10.30;;;5.00;;
9080;SDS011;13509;50.760;6.080;2024-01-30T10:54:45;10.03;;;4.77;;
9080;SDS011;13509;50.760;6.080;2024-01-30T10:57:14;8.77;;;4.30;;
9080;SDS011;13509;50.760;6.080;2024-01-30T10:59:43;8.80;;;4.50;;
9080;SDS011;13509;50.760;6.080;2024-01-30T11:02:13;12.43;;;4.83;;
9080;SDS011;13509;50.760;6.080;2024-01-30T11:04:42;9.93;;;5.07;;
9080;SDS011;13509;50.760;6.080;2024-01-30T11:07:14;5.73;;;4.47;;
9080;SDS011;13509;50.760;6.080;2024-01-30T11:09:51;7.00;;;4.63;;
9080;SDS011;13509;50.760;6.080;2024-01-30T11:12:22;10.73;;;4.73;;
9080;SDS011;13509;50.760;6.080;2024-01-30T11:15:01;9.57;;;5.20;;
9080;SDS011;13509;50.760;6.080;2024-01-30T11:17:39;7.03;;;4.70;;
9080;SDS011;13509;50.760;6.080;2024-01-30T11:20:09;8.43;;;4.50;;
9080;SDS011;13509;50.760;6.080;2024-01-30T11:22:38;7.80;;;4.30;;
9080;SDS011;13509;50.760;6.080;2024-01-30T11:25:12;6.93;;;4.47;;
9080;SDS011;13509;50.760;6.080;2024-01-30T11:27:41;10.27;;;5.60;;
9080;SDS011;13509;50.760;6.080;2024-01-30T11:30:10;25.23;;;10.47;;
9080;SDS011;13509;50.760;6.080;2024-01-30T11:32:39;14.37;;;5.83;;
9080;SDS011;13509;50.760;6.080;2024-01-30T11:35:07;12.80;;;6.13;;
9080;SDS011;13509;50.760;6.080;2024-01-30T11:37:37;12.57;;;6.17;;
9080;SDS011;13509;50.760;6.080;2024-01-30T11:40:06;14.93;;;7.80;;
9080;SDS011;13509;50.760;6.080;2024-01-30T11:42:39;8.63;;;4.80;;
9080;SDS011;13509;50.760;6.080;2024-01-30T11:45:08;10.73;;;5.90;;
9080;SDS011;13509;50.760;6.080;2024-01-30T11:47:37;10.00;;;5.17;;
9080;SDS011;13509;50.760;6.080;2024-01-30T11:50:10;8.73;;;4.50;;
9080;SDS011;13509;50.760;6.080;2024-01-30T11:52:38;12.77;;;5.87;;
9080;SDS011;13509;50.760;6.080;2024-01-30T11:55:07;12.50;;;5.83;;
9080;SDS011;13509;50.760;6.080;2024-01-30T11:57:36;10.40;;;5.67;;
9080;SDS011;13509;50.760;6.080;2024-01-30T12:00:13;6.90;;;5.40;;
9080;SDS011;13509;50.760;6.080;2024-01-30T12:02:42;9.63;;;6.00;;
9080;SDS011;13509;50.760;6.080;2024-01-30T12:05:10;9.83;;;5.63;;
9080;SDS011;13509;50.760;6.080;2024-01-30T12:07:39;10.47;;;5.27;;
9080;SDS011;13509;50.760;6.080;2024-01-30T12:10:08;8.33;;;5.50;;
9080;SDS011;13509;50.760;6.080;2024-01-30T12:12:37;10.00;;;4.97;;
9080;SDS011;13509;50.760;6.080;2024-01-30T12:15:08;11.50;;;5.83;;
9080;SDS011;13509;50.760;6.080;2024-01-30T12:17:36;9.83;;;5.63;;
9080;SDS011;13509;50.760;6.080;2024-01-30T12:20:05;10.10;;;5.47;;
9080;SDS011;13509;50.760;6.080;2024-01-30T12:22:36;8.93;;;5.40;;
9080;SDS011;13509;50.760;6.080;2024-01-30T12:25:05;7.53;;;4.70;;
9080;SDS011;13509;50.760;6.080;2024-01-30T12:27:35;7.43;;;5.20;;
9080;SDS011;13509;50.760;6.080;2024-01-30T12:30:05;10.90;;;5.57;;
9080;SDS011;13509;50.760;6.080;2024-01-30T12:32:35;7.80;;;5.20;;
9080;SDS011;13509;50.760;6.080;2024-01-30T12:35:05;9.40;;;5.90;;
9080;SDS011;13509;50.760;6.080;2024-01-30T12:37:35;11.80;;;5.53;;
9080;SDS011;13509;50.760;6.080;2024-01-30T12:40:04;9.97;;;5.70;;
9080;SDS011;13509;50.760;6.080;2024-01-30T12:42:33;17.67;;;6.07;;
9080;SDS011;13509;50.760;6.080;2024-01-30T12:45:02;13.90;;;5.53;;
9080;SDS011;13509;50.760;6.080;2024-01-30T12:47:30;10.10;;;5.33;;
9080;SDS011;13509;50.760;6.080;2024-01-30T12:50:00;9.53;;;5.40;;
9080;SDS011;13509;50.760;6.080;2024-01-30T12:52:29;8.43;;;5.37;;
9080;SDS011;13509;50.760;6.080;2024-01-30T12:54:58;12.83;;;5.97;;
9080;SDS011;13509;50.760;6.080;2024-01-30T12:57:26;10.03;;;6.03;;
9080;SDS011;13509;50.760;6.080;2024-01-30T12:59:55;8.40;;;5.80;;
9080;SDS011;13509;50.760;6.080;2024-01-30T13:02:23;10.23;;;6.23;;
9080;SDS011;13509;50.760;6.080;2024-01-30T13:04:52;10.17;;;6.70;;
9080;SDS011;13509;50.760;6.080;2024-01-30T13:07:22;7.70;;;5.27;;
9080;SDS011;13509;50.760;6.080;2024-01-30T13:09:51;9.77;;;5.40;;
9080;SDS011;13509;50.760;6.080;2024-01-30T13:12:19;11.07;;;6.03;;
9080;SDS011;13509;50.760;6.080;2024-01-30T13:14:48;10.03;;;5.83;;
9080;SDS011;13509;50.760;6.080;2024-01-30T13:17:16;10.40;;;6.30;;
9080;SDS011;13509;50.760;6.080;2024-01-30T13:19:44;8.90;;;6.13;;
9080;SDS011;13509;50.760;6.080;2024-01-30T13:22:15;11.23;;;6.10;;
9080;SDS011;13509;50.760;6.080;2024-01-30T13:24:45;11.87;;;6.33;;
9080;SDS011;13509;50.760;6.080;2024-01-30T13:27:13;10.53;;;6.10;;
9080;SDS011;13509;50.760;6.080;2024-01-30T13:29:42;12.30;;;6.00;;
9080;SDS011;13509;50.760;6.080;2024-01-30T13:32:10;9.97;;;6.37;;
9080;SDS011;13509;50.760;6.080;2024-01-30T13:34:38;12.23;;;6.60;;
9080;SDS011;13509;50.760;6.080;2024-01-30T13:37:08;10.50;;;6.53;;
9080;SDS011;13509;50.760;6.080;2024-01-30T13:39:37;10.10;;;6.43;;
9080;SDS011;13509;50.760;6.080;2024-01-30T13:42:07;13.53;;;6.83;;
9080;SDS011;13509;50.760;6.080;2024-01-30T13:44:35;8.83;;;5.90;;
9080;SDS011;13509;50.760;6.080;2024-01-30T13:47:04;11.73;;;6.23;;
9080;SDS011;13509;50.760;6.080;2024-01-30T13:49:32;11.13;;;6.23;;
9080;SDS011;13509;50.760;6.080;2024-01-30T13:52:01;9.43;;;5.87;;
9080;SDS011;13509;50.760;6.080;2024-01-30T13:54:30;9.43;;;6.33;;
9080;SDS011;13509;50.760;6.080;2024-01-30T13:56:58;11.97;;;7.47;;
9080;SDS011;13509;50.760;6.080;2024-01-30T13:59:28;15.07;;;7.30;;
9080;SDS011;13509;50.760;6.080;2024-01-30T14:01:56;9.93;;;7.70;;
9080;SDS011;13509;50.760;6.080;2024-01-30T14:04:25;16.20;;;6.47;;
9080;SDS011;13509;50.760;6.080;2024-01-30T14:06:53;14.47;;;7.07;;
9080;SDS011;13509;50.760;6.080;2024-01-30T14:09:30;12.67;;;5.97;;
9080;SDS011;13509;50.760;6.080;2024-01-30T14:11:59;14.33;;;6.57;;
9080;SDS011;13509;50.760;6.080;2024-01-30T14:14:28;9.53;;;6.67;;
9080;SDS011;13509;50.760;6.080;2024-01-30T14:16:57;11.13;;;6.77;;
9080;SDS011;13509;50.760;6.080;2024-01-30T14:19:26;14.23;;;6.73;;
9080;SDS011;13509;50.760;6.080;2024-01-30T14:21:54;10.77;;;6.53;;
9080;SDS011;13509;50.760;6.080;2024-01-30T14:24:23;11.10;;;6.40;;
9080;SDS011;13509;50.760;6.080;2024-01-30T14:26:51;9.67;;;6.53;;
9080;SDS011;13509;50.760;6.080;2024-01-30T14:29:19;15.97;;;6.73;;
9080;SDS011;13509;50.760;6.080;2024-01-30T14:31:49;11.73;;;6.43;;
9080;SDS011;13509;50.760;6.080;2024-01-30T14:34:17;12.23;;;6.80;;
9080;SDS011;13509;50.760;6.080;2024-01-30T14:36:46;13.83;;;6.97;;
9080;SDS011;13509;50.760;6.080;2024-01-30T14:39:14;12.10;;;6.77;;
9080;SDS011;13509;50.760;6.080;2024-01-30T14:41:44;14.67;;;7.17;;
9080;SDS011;13509;50.760;6.080;2024-01-30T14:44:13;11.67;;;6.77;;
9080;SDS011;13509;50.760;6.080;2024-01-30T14:46:41;12.73;;;6.77;;
9080;SDS011;13509;50.760;6.080;2024-01-30T14:49:11;11.33;;;6.90;;
9080;SDS011;13509;50.760;6.080;2024-01-30T14:51:42;17.83;;;7.57;;
9080;SDS011;13509;50.760;6.080;2024-01-30T14:54:10;12.80;;;7.20;;
9080;SDS011;13509;50.760;6.080;2024-01-30T14:56:38;9.63;;;5.63;;
9080;SDS011;13509;50.760;6.080;2024-01-30T14:59:07;16.50;;;6.10;;
9080;SDS011;13509;50.760;6.080;2024-01-30T15:01:35;11.17;;;5.63;;
9080;SDS011;13509;50.760;6.080;2024-01-30T15:04:04;11.83;;;5.17;;
9080;SDS011;13509;50.760;6.080;2024-01-30T15:06:34;16.27;;;5.60;;
9080;SDS011;13509;50.760;6.080;2024-01-30T15:09:02;12.10;;;6.30;;
9080;SDS011;13509;50.760;6.080;2024-01-30T15:11:31;11.57;;;4.57;;